createdAt,value
2019-05-07T00:02:32.718Z,12.97
2019-05-07T00:05:42.700Z,7.70
2019-05-07T00:11:57.915Z,10.87
2019-05-07T00:15:06.579Z,6.77
2019-05-07T00:18:14.560Z,9.07
2019-05-07T00:21:23.358Z,7.43
2019-05-07T00:27:42.775Z,7.73
2019-05-07T00:30:52.131Z,8.43
2019-05-07T00:37:17.260Z,7.73
2019-05-07T00:40:33.050Z,4.97
2019-05-07T00:43:43.282Z,10.20
2019-05-07T00:46:52.515Z,8.27
2019-05-07T00:50:05.246Z,10.13
2019-05-07T00:53:13.277Z,6.27
2019-05-07T00:56:22.316Z,8.93
2019-05-07T00:59:32.230Z,9.00
2019-05-07T01:02:40.491Z,16.33
2019-05-07T01:05:49.001Z,10.37
2019-05-07T01:08:57.017Z,14.27
2019-05-07T01:12:05.246Z,15.30
2019-05-07T01:15:27.679Z,12.00
2019-05-07T01:18:23.587Z,10.43
2019-05-07T01:21:32.444Z,8.93
2019-05-07T01:24:42.954Z,12.07
2019-05-07T01:27:50.577Z,11.43
2019-05-07T01:30:58.688Z,11.60
2019-05-07T01:34:15.260Z,12.53
2019-05-07T01:37:24.271Z,9.83
2019-05-07T01:40:32.475Z,10.80
2019-05-07T01:49:55.111Z,13.20
2019-05-07T01:56:12.506Z,14.43
2019-05-07T01:59:22.468Z,13.90
2019-05-07T02:02:43.284Z,11.47
2019-05-07T02:06:05.245Z,9.50
2019-05-07T02:09:25.672Z,13.80
2019-05-07T02:12:35.254Z,12.50
2019-05-07T02:15:57.380Z,10.53
2019-05-07T02:22:02.759Z,11.53
2019-05-07T02:25:12.467Z,9.33
2019-05-07T02:28:22.287Z,8.90
2019-05-07T02:31:33.686Z,13.63
2019-05-07T02:34:44.210Z,8.50
2019-05-07T02:37:56.998Z,9.97
2019-05-07T02:41:14.187Z,10.07
2019-05-07T02:47:33.140Z,11.43
2019-05-07T02:50:57.694Z,10.70
2019-05-07T02:54:23.773Z,9.10
2019-05-07T02:57:34.052Z,10.53
2019-05-07T03:00:43.084Z,7.90
2019-05-07T03:03:52.852Z,9.53
2019-05-07T03:07:03.646Z,7.83
2019-05-07T03:10:13.651Z,7.90
2019-05-07T03:13:23.434Z,9.63
2019-05-07T03:16:39.631Z,6.97
2019-05-07T03:22:53.569Z,9.80
2019-05-07T03:26:07.274Z,8.97
2019-05-07T03:29:24.006Z,10.90
2019-05-07T03:32:38.756Z,11.37
2019-05-07T03:35:55.439Z,7.43
2019-05-07T03:38:59.517Z,7.60
2019-05-07T03:42:07.584Z,7.00
2019-05-07T03:45:42.983Z,9.90
2019-05-07T03:48:52.916Z,9.30
2019-05-07T03:52:00.055Z,8.07
2019-05-07T03:55:09.216Z,9.43
2019-05-07T03:58:17.723Z,9.47
2019-05-07T04:01:25.537Z,12.67
2019-05-07T04:04:33.524Z,9.80
2019-05-07T04:07:43.095Z,8.27
2019-05-07T04:10:53.833Z,9.63
2019-05-07T04:14:02.602Z,7.83
2019-05-07T04:17:17.339Z,8.40
2019-05-07T04:20:23.706Z,10.30
2019-05-07T04:23:33.745Z,7.80
2019-05-07T04:26:43.871Z,9.13
2019-05-07T04:29:53.233Z,10.23
2019-05-07T04:36:39.535Z,8.77
2019-05-07T04:39:54.439Z,12.97
2019-05-07T04:46:14.081Z,10.63
2019-05-07T04:49:23.593Z,7.70
2019-05-07T04:52:34.739Z,9.60
2019-05-07T04:55:43.186Z,10.77
2019-05-07T04:58:53.392Z,12.47
2019-05-07T05:05:24.081Z,8.87
2019-05-07T05:08:32.710Z,12.67
2019-05-07T05:11:40.580Z,13.87
2019-05-07T05:14:48.642Z,12.10
2019-05-07T05:17:58.669Z,10.40
2019-05-07T05:21:26.729Z,11.40
2019-05-07T05:24:42.422Z,11.17
2019-05-07T05:27:52.414Z,11.10
2019-05-07T05:31:03.416Z,12.97
2019-05-07T05:34:13.072Z,13.20
2019-05-07T05:37:22.644Z,11.63
2019-05-07T05:40:32.003Z,16.33
2019-05-07T05:44:05.549Z,16.73
2019-05-07T05:47:13.573Z,23.90
2019-05-07T05:50:21.912Z,22.07
2019-05-07T05:53:38.641Z,19.33
2019-05-07T05:56:54.904Z,18.37
2019-05-07T06:00:26.399Z,20.43
2019-05-07T06:03:59.284Z,21.20
2019-05-07T06:07:26.222Z,18.73
2019-05-07T06:11:09.190Z,21.57
2019-05-07T06:14:45.338Z,22.43
2019-05-07T06:18:06.862Z,22.23
2019-05-07T06:21:33.914Z,17.50
2019-05-07T06:24:47.147Z,19.27
2019-05-07T06:27:55.251Z,21.67
2019-05-07T06:31:03.566Z,20.50
2019-05-07T06:34:12.455Z,19.00
2019-05-07T06:37:22.661Z,20.20
2019-05-07T06:40:58.463Z,18.40
2019-05-07T06:47:17.557Z,16.03
2019-05-07T06:50:25.503Z,19.43
2019-05-07T06:53:34.892Z,18.77
2019-05-07T06:56:43.028Z,15.50
2019-05-07T06:59:54.644Z,18.73
2019-05-07T07:03:12.731Z,20.77
2019-05-07T07:06:25.430Z,18.17
2019-05-07T07:12:55.623Z,21.43
2019-05-07T07:16:04.136Z,21.70
2019-05-07T07:19:12.714Z,15.10
2019-05-07T07:22:22.257Z,18.00
2019-05-07T07:25:32.515Z,17.63
2019-05-07T07:28:42.783Z,16.77
2019-05-07T07:31:59.270Z,19.97
2019-05-07T07:35:09.723Z,18.00
2019-05-07T07:38:34.159Z,20.77
2019-05-07T07:41:54.230Z,23.17
2019-05-07T07:45:16.256Z,18.63
2019-05-07T07:48:24.950Z,21.10
2019-05-07T07:51:41.095Z,18.63
2019-05-07T07:54:45.432Z,24.20
2019-05-07T07:58:04.471Z,19.60
2019-05-07T08:01:22.476Z,18.20
2019-05-07T08:04:32.035Z,18.57
2019-05-07T08:07:42.601Z,23.17
2019-05-07T08:13:57.343Z,17.00
2019-05-07T08:17:07.702Z,16.43
2019-05-07T08:20:17.750Z,18.37
2019-05-07T08:23:25.569Z,14.27
2019-05-07T08:26:33.551Z,20.27
2019-05-07T08:29:43.033Z,19.83
2019-05-07T08:33:02.217Z,15.90
2019-05-07T08:39:25.168Z,15.00
2019-05-07T08:42:33.526Z,19.33
2019-05-07T08:45:58.924Z,16.87
2019-05-07T08:49:08.247Z,15.73
2019-05-07T08:52:16.543Z,16.63
2019-05-07T08:55:24.520Z,13.43
2019-05-07T08:58:32.552Z,12.43
2019-05-07T09:08:54.526Z,16.47
2019-05-07T09:12:03.150Z,14.87
2019-05-07T09:15:12.649Z,17.67
2019-05-07T09:18:22.814Z,14.43
2019-05-07T09:21:32.223Z,13.33
2019-05-07T09:31:06.241Z,11.77
2019-05-07T09:34:14.522Z,12.00
2019-05-07T09:37:26.475Z,9.67
2019-05-07T09:40:34.635Z,7.37
2019-05-07T09:43:42.526Z,8.17
2019-05-07T09:46:52.055Z,9.80
2019-05-07T09:50:05.496Z,7.57
2019-05-07T09:53:12.544Z,8.87
2019-05-07T09:56:22.464Z,9.43
2019-05-07T09:59:32.356Z,10.30
2019-05-07T10:06:36.425Z,8.17
2019-05-07T10:13:18.827Z,7.00
2019-05-07T10:16:32.403Z,8.13
2019-05-07T10:19:41.741Z,6.67
2019-05-07T10:22:51.862Z,7.77
2019-05-07T10:26:01.666Z,8.53
2019-05-07T10:29:09.469Z,9.17
2019-05-07T10:32:17.659Z,9.10
2019-05-07T10:35:27.256Z,8.33
2019-05-07T10:38:35.588Z,7.80
2019-05-07T10:41:43.682Z,8.60
2019-05-07T10:45:13.040Z,10.37
2019-05-07T10:48:39.747Z,7.50
2019-05-07T10:51:47.642Z,7.17
2019-05-07T10:54:59.766Z,7.90
2019-05-07T10:58:05.548Z,7.23
2019-05-07T11:01:16.356Z,7.40
2019-05-07T11:04:39.052Z,7.30
2019-05-07T11:07:35.556Z,11.57
2019-05-07T11:10:43.601Z,9.70
2019-05-07T11:13:55.522Z,7.20
2019-05-07T11:21:34.297Z,8.20
2019-05-07T11:24:42.689Z,8.23
2019-05-07T11:27:52.411Z,10.60
2019-05-07T11:31:02.076Z,10.20
2019-05-07T11:34:11.923Z,13.63
2019-05-07T11:37:22.467Z,9.75
2019-05-07T11:40:34.467Z,7.80
2019-05-07T11:43:58.147Z,6.93
2019-05-07T11:47:22.375Z,7.00
2019-05-07T11:51:01.365Z,8.80
2019-05-07T11:54:12.833Z,10.03
2019-05-07T11:57:22.150Z,12.80
2019-05-07T12:00:38.064Z,14.53
2019-05-07T12:03:46.114Z,15.93
2019-05-07T12:06:54.614Z,15.67
2019-05-07T12:10:04.862Z,14.20
2019-05-07T12:13:12.917Z,12.80
2019-05-07T12:16:22.341Z,9.70
2019-05-07T12:19:30.508Z,7.97
2019-05-07T12:22:48.262Z,9.37
2019-05-07T12:25:56.855Z,12.33
2019-05-07T12:29:05.140Z,9.23
2019-05-07T12:32:48.007Z,10.10
2019-05-07T12:35:56.266Z,11.70
2019-05-07T12:39:07.684Z,9.43
2019-05-07T12:45:23.454Z,12.00
2019-05-07T12:51:56.746Z,11.80
2019-05-07T12:55:13.564Z,10.03
2019-05-07T12:58:21.872Z,14.20
2019-05-07T13:01:48.764Z,17.77
2019-05-07T13:04:58.093Z,18.37
2019-05-07T13:08:06.657Z,10.63
2019-05-07T13:11:15.052Z,9.23
2019-05-07T13:17:46.595Z,9.43
2019-05-07T13:20:54.845Z,9.13
2019-05-07T13:24:02.835Z,7.33
2019-05-07T13:27:11.261Z,8.83
2019-05-07T13:30:22.181Z,9.23
2019-05-07T13:33:31.651Z,9.00
2019-05-07T13:36:44.242Z,9.30
2019-05-07T13:40:17.226Z,10.17
2019-05-07T13:43:30.907Z,13.17
2019-05-07T13:46:42.122Z,9.13
2019-05-07T13:49:53.566Z,11.00
2019-05-07T13:53:01.765Z,7.87
2019-05-07T13:56:12.684Z,8.63
2019-05-07T13:59:22.270Z,9.73
2019-05-07T14:02:32.697Z,9.87
2019-05-07T14:05:42.534Z,7.90
2019-05-07T14:12:01.896Z,10.37
2019-05-07T14:15:09.539Z,11.47
2019-05-07T14:18:19.267Z,10.67
2019-05-07T14:21:27.239Z,10.57
2019-05-07T14:24:36.586Z,7.63
2019-05-07T14:27:44.608Z,13.77
2019-05-07T14:30:53.264Z,8.23
2019-05-07T14:34:12.484Z,7.43
2019-05-07T14:37:32.494Z,11.33
2019-05-07T14:40:42.697Z,6.87
2019-05-07T14:44:01.242Z,6.23
2019-05-07T14:47:10.401Z,10.53
2019-05-07T14:50:22.426Z,8.20
2019-05-07T14:53:30.237Z,5.57
2019-05-07T14:56:39.236Z,11.27
2019-05-07T14:59:48.430Z,6.07
2019-05-07T15:02:56.531Z,9.50
2019-05-07T15:06:04.540Z,6.70
2019-05-07T15:09:12.644Z,10.87
2019-05-07T15:12:20.538Z,10.87
2019-05-07T15:15:28.563Z,7.40
2019-05-07T15:18:52.952Z,11.60
2019-05-07T15:25:31.993Z,8.53
2019-05-07T15:28:41.908Z,7.83
2019-05-07T15:32:08.034Z,7.73
2019-05-07T15:35:16.263Z,10.47
2019-05-07T15:38:24.517Z,7.90
2019-05-07T15:41:32.681Z,9.13
2019-05-07T15:44:43.223Z,7.63
2019-05-07T15:47:53.249Z,9.63
2019-05-07T15:51:01.908Z,16.77
2019-05-07T15:54:12.647Z,9.37
2019-05-07T15:57:25.396Z,8.07
2019-05-07T16:03:45.701Z,8.67
2019-05-07T16:06:54.704Z,7.90
2019-05-07T16:10:04.538Z,8.83
2019-05-07T16:13:14.252Z,8.60
2019-05-07T16:16:23.610Z,13.50
2019-05-07T16:19:32.215Z,10.37
2019-05-07T16:25:52.807Z,10.97
2019-05-07T16:29:04.717Z,9.70
2019-05-07T16:32:13.562Z,27.60
2019-05-07T16:35:24.441Z,15.80
2019-05-07T16:38:34.531Z,9.00
2019-05-07T16:41:44.060Z,11.77
2019-05-07T16:44:52.395Z,13.00
2019-05-07T16:48:03.183Z,10.73
2019-05-07T16:51:12.798Z,8.90
2019-05-07T16:54:21.403Z,10.10
2019-05-07T16:57:38.378Z,11.30
2019-05-07T17:00:52.281Z,10.87
2019-05-07T17:04:03.671Z,11.10
2019-05-07T17:07:13.891Z,9.90
2019-05-07T17:10:26.428Z,9.03
2019-05-07T17:13:37.371Z,17.73
2019-05-07T17:16:51.628Z,8.07
2019-05-07T17:20:02.138Z,7.07
2019-05-07T17:23:11.942Z,7.93
2019-05-07T17:26:23.033Z,7.53
2019-05-07T17:29:32.065Z,5.37
2019-05-07T17:32:41.976Z,5.97
2019-05-07T17:35:51.746Z,8.43
2019-05-07T17:39:04.310Z,6.57
2019-05-07T17:42:17.439Z,12.33
2019-05-07T17:45:26.537Z,7.53
2019-05-07T17:48:36.443Z,7.57
2019-05-07T17:54:53.155Z,7.50
2019-05-07T17:58:01.992Z,10.37
2019-05-07T18:01:11.098Z,8.43
2019-05-07T18:04:19.646Z,13.63
2019-05-07T18:07:28.104Z,9.07
2019-05-07T18:10:38.591Z,7.30
2019-05-07T18:13:47.127Z,6.63
2019-05-07T18:17:14.265Z,7.80
2019-05-07T18:20:22.393Z,5.23
2019-05-07T18:26:42.182Z,9.43
2019-05-07T18:29:52.089Z,6.47
2019-05-07T18:33:18.916Z,7.30
2019-05-07T18:36:31.646Z,7.03
2019-05-07T18:39:42.639Z,12.03
2019-05-07T18:42:54.053Z,11.37
2019-05-07T18:46:02.854Z,7.83
2019-05-07T18:52:24.582Z,70.60
2019-05-07T18:55:33.090Z,31.23
2019-05-07T18:58:42.628Z,33.33
2019-05-07T19:01:54.498Z,109.73
2019-05-07T19:05:05.659Z,112.67
2019-05-07T19:08:14.251Z,85.83
2019-05-07T19:11:22.986Z,35.20
2019-05-07T19:14:33.631Z,30.00
2019-05-07T19:17:44.449Z,63.10
2019-05-07T19:24:02.310Z,78.63
2019-05-07T19:33:28.563Z,35.13
2019-05-07T19:36:36.769Z,56.83
2019-05-07T19:39:46.747Z,43.43
2019-05-07T19:42:56.247Z,66.93
2019-05-07T19:46:04.555Z,118.10
2019-05-07T19:49:13.258Z,88.40
2019-05-07T19:52:23.190Z,57.37
2019-05-07T19:55:52.188Z,60.10
2019-05-07T19:59:03.632Z,27.37
2019-05-07T20:02:16.421Z,25.73
2019-05-07T20:08:32.467Z,11.77
2019-05-07T20:11:48.935Z,9.87
2019-05-07T20:14:57.429Z,8.80
2019-05-07T20:21:17.370Z,6.70
2019-05-07T20:24:25.589Z,7.47
2019-05-07T20:27:33.528Z,6.27
2019-05-07T20:30:41.918Z,8.87
2019-05-07T20:33:52.846Z,8.83
2019-05-07T20:37:02.063Z,11.37
2019-05-07T20:40:12.184Z,8.43
2019-05-07T20:43:20.551Z,6.73
2019-05-07T20:46:29.262Z,8.17
2019-05-07T20:49:38.515Z,10.93
2019-05-07T20:52:46.564Z,8.27
2019-05-07T20:56:02.226Z,11.03
2019-05-07T21:02:22.534Z,13.47
2019-05-07T21:05:32.419Z,10.00
2019-05-07T21:08:42.648Z,12.33
2019-05-07T21:11:52.380Z,13.27
2019-05-07T21:15:00.577Z,55.00
2019-05-07T21:18:09.276Z,39.30
2019-05-07T21:21:17.527Z,41.33
2019-05-07T21:24:25.591Z,26.80
2019-05-07T21:27:33.765Z,30.63
2019-05-07T21:30:42.796Z,13.50
2019-05-07T21:33:52.351Z,16.80
2019-05-07T21:37:00.572Z,44.43
2019-05-07T21:40:08.765Z,36.13
2019-05-07T21:43:17.017Z,17.53
2019-05-07T21:46:25.261Z,11.57
2019-05-07T21:49:33.546Z,17.37
2019-05-07T21:52:44.250Z,56.30
2019-05-07T21:56:12.346Z,45.27
2019-05-07T21:59:22.918Z,18.33
2019-05-07T22:02:32.757Z,33.60
2019-05-07T22:05:44.044Z,23.03
2019-05-07T22:08:52.523Z,16.27
2019-05-07T22:12:03.541Z,14.67
2019-05-07T22:15:13.255Z,15.67
2019-05-07T22:18:22.650Z,19.87
2019-05-07T22:21:33.978Z,14.80
2019-05-07T22:24:42.542Z,19.27
2019-05-07T22:27:52.855Z,20.63
2019-05-07T22:31:27.368Z,13.83
2019-05-07T22:34:52.050Z,10.43
2019-05-07T22:38:03.760Z,10.27
2019-05-07T22:41:12.928Z,9.83
2019-05-07T22:44:25.461Z,11.87
2019-05-07T22:50:39.663Z,8.83
2019-05-07T22:53:47.666Z,9.00
2019-05-07T22:57:14.303Z,9.23
2019-05-07T23:00:32.133Z,9.03
2019-05-07T23:03:42.860Z,10.23
2019-05-07T23:06:52.668Z,8.33
2019-05-07T23:10:02.377Z,9.30
2019-05-07T23:13:10.007Z,8.10
2019-05-07T23:16:17.920Z,8.30
2019-05-07T23:19:26.094Z,10.87
2019-05-07T23:22:34.282Z,8.83
2019-05-07T23:25:43.191Z,6.67
2019-05-07T23:28:52.511Z,7.63
2019-05-07T23:32:01.924Z,8.00
2019-05-07T23:35:12.560Z,5.63
2019-05-07T23:38:22.387Z,8.83
2019-05-07T23:41:36.517Z,8.33
2019-05-07T23:44:44.482Z,6.70
2019-05-07T23:51:02.058Z,7.50
2019-05-07T23:54:11.951Z,8.13
